createdAt,value
2022-11-05T00:00:38.572Z,95561.97
2022-11-05T00:03:25.272Z,95561.66
2022-11-05T00:06:12.610Z,95570.75
2022-11-05T00:08:59.635Z,95572.56
2022-11-05T00:11:46.459Z,95571.75
2022-11-05T00:14:32.556Z,95572.06
2022-11-05T00:16:59.292Z,95581.84
2022-11-05T00:19:26.305Z,95589.00
2022-11-05T00:22:12.405Z,95584.75
2022-11-05T00:24:57.667Z,95601.34
2022-11-05T00:27:24.431Z,95600.22
2022-11-05T00:29:53.857Z,95606.91
2022-11-05T00:32:22.119Z,95604.13
2022-11-05T00:34:48.894Z,95602.66
2022-11-05T00:37:15.862Z,95607.53
2022-11-05T00:39:42.644Z,95603.00
2022-11-05T00:42:28.455Z,95608.38
2022-11-05T00:45:01.093Z,95614.06
2022-11-05T00:47:46.728Z,95625.75
2022-11-05T00:50:13.714Z,95627.38
2022-11-05T00:52:55.894Z,95624.13
2022-11-05T00:55:26.671Z,95632.78
2022-11-05T00:57:56.951Z,95631.81
2022-11-05T01:00:26.406Z,95634.22
2022-11-05T01:02:58.305Z,95634.41
2022-11-05T01:05:32.579Z,95637.31
2022-11-05T01:08:00.646Z,95643.38
2022-11-05T01:10:33.490Z,95639.44
2022-11-05T01:13:04.914Z,95651.00
2022-11-05T01:15:43.512Z,95645.78
2022-11-05T01:18:11.650Z,95647.72
2022-11-05T01:20:39.596Z,95651.47
2022-11-05T01:23:12.989Z,95661.41
2022-11-05T01:25:44.340Z,95651.00
2022-11-05T01:28:12.322Z,95656.38
2022-11-05T01:30:39.885Z,95657.84
2022-11-05T01:33:07.311Z,95657.34
2022-11-05T01:35:34.785Z,95658.31
2022-11-05T01:38:02.209Z,95661.91
2022-11-05T01:40:29.577Z,95657.00
2022-11-05T01:42:57.157Z,95655.06
2022-11-05T01:45:26.963Z,95664.81
2022-11-05T01:48:30.749Z,95665.81
2022-11-05T01:51:18.553Z,95673.31
2022-11-05T01:53:57.426Z,95675.28
2022-11-05T01:56:33.184Z,95678.50
2022-11-05T01:59:15.140Z,95681.78
2022-11-05T02:01:45.742Z,95684.53
2022-11-05T02:04:18.148Z,95681.47
2022-11-05T02:06:46.873Z,95676.06
2022-11-05T02:09:30.440Z,95678.69
2022-11-05T02:11:58.819Z,95685.84
2022-11-05T02:14:25.928Z,95683.09
2022-11-05T02:17:18.182Z,95692.38
2022-11-05T02:20:15.950Z,95683.22
2022-11-05T02:23:09.114Z,95694.31
2022-11-05T02:25:53.591Z,95699.88
2022-11-05T02:28:41.964Z,95695.78
2022-11-05T02:31:17.693Z,95698.72
2022-11-05T02:34:19.893Z,95707.16
2022-11-05T02:37:31.783Z,95713.34
2022-11-05T02:40:17.047Z,95707.97
2022-11-05T02:42:52.580Z,95715.91
2022-11-05T02:45:34.623Z,95719.50
2022-11-05T02:48:33.064Z,95721.13
2022-11-05T02:51:16.595Z,95721.09
2022-11-05T02:54:19.436Z,95716.19
2022-11-05T02:56:50.687Z,95716.66
2022-11-05T02:59:18.088Z,95712.78
2022-11-05T03:01:47.152Z,95718.94
2022-11-05T03:04:17.920Z,95715.69
2022-11-05T03:06:56.786Z,95725.00
2022-11-05T03:09:41.027Z,95722.41
2022-11-05T03:12:10.768Z,95727.13
2022-11-05T03:14:49.939Z,95724.69
2022-11-05T03:17:35.808Z,95735.75
2022-11-05T03:20:15.486Z,95732.03
2022-11-05T03:22:51.808Z,95732.38
2022-11-05T03:25:24.204Z,95732.38
2022-11-05T03:27:56.131Z,95737.22
2022-11-05T03:30:25.081Z,95744.53
2022-11-05T03:33:00.206Z,95743.56
2022-11-05T03:35:31.613Z,95740.16
2022-11-05T03:38:03.724Z,95746.81
2022-11-05T03:40:35.197Z,95751.69
2022-11-05T03:43:06.588Z,95741.63
2022-11-05T03:45:40.069Z,95748.28
2022-11-05T03:48:10.682Z,95754.47
2022-11-05T03:50:53.067Z,95760.16
2022-11-05T03:53:28.167Z,95756.25
2022-11-05T03:55:59.359Z,95767.00
2022-11-05T03:58:27.251Z,95764.25
2022-11-05T04:00:54.147Z,95774.53
2022-11-05T04:03:20.935Z,95771.25
2022-11-05T04:06:07.612Z,95773.53
2022-11-05T04:08:53.058Z,95769.91
2022-11-05T04:11:38.457Z,95771.22
2022-11-05T04:14:05.225Z,95775.59
2022-11-05T04:16:50.254Z,95774.13
2022-11-05T04:19:36.966Z,95770.84
2022-11-05T04:22:22.239Z,95784.22
2022-11-05T04:24:49.135Z,95785.97
2022-11-05T04:27:15.896Z,95782.59
2022-11-05T04:30:01.266Z,95786.19
2022-11-05T04:32:28.019Z,95794.69
2022-11-05T04:34:54.781Z,95807.03
2022-11-05T04:37:21.515Z,95798.44
2022-11-05T04:39:48.296Z,95794.72
2022-11-05T04:42:15.001Z,95800.72
2022-11-05T04:44:41.753Z,95802.78
2022-11-05T04:47:08.568Z,95801.50
2022-11-05T04:49:35.332Z,95804.59
2022-11-05T04:52:02.065Z,95812.72
2022-11-05T04:54:28.830Z,95816.78
2022-11-05T04:56:55.634Z,95815.34
2022-11-05T04:59:22.485Z,95816.19
2022-11-05T05:01:53.195Z,95811.19
2022-11-05T05:04:20.774Z,95809.53
2022-11-05T05:06:47.549Z,95809.38
2022-11-05T05:09:14.367Z,95809.06
2022-11-05T05:11:41.205Z,95823.41
2022-11-05T05:14:08.730Z,95821.44
2022-11-05T05:16:35.536Z,95821.63
2022-11-05T05:19:02.333Z,95827.59
2022-11-05T05:21:41.711Z,95825.97
2022-11-05T05:24:11.570Z,95829.56
2022-11-05T05:26:41.553Z,95831.66
2022-11-05T05:29:09.137Z,95835.19
2022-11-05T05:31:36.468Z,95844.47
2022-11-05T05:34:03.892Z,95853.78
2022-11-05T05:36:31.073Z,95861.56
2022-11-05T05:38:58.177Z,95863.81
2022-11-05T05:41:25.019Z,95871.41
2022-11-05T05:43:51.795Z,95867.19
2022-11-05T05:46:19.687Z,95865.25
2022-11-05T05:48:52.761Z,95877.28
2022-11-05T05:51:20.064Z,95875.53
2022-11-05T05:53:46.847Z,95878.75
2022-11-05T05:56:19.520Z,95886.28
2022-11-05T05:58:47.245Z,95889.53
2022-11-05T06:01:19.336Z,95894.59
2022-11-05T06:03:47.932Z,95898.47
2022-11-05T06:06:16.259Z,95899.44
2022-11-05T06:08:43.081Z,95902.84
2022-11-05T06:11:09.970Z,95904.97
2022-11-05T06:13:37.549Z,95898.63
2022-11-05T06:16:06.793Z,95909.53
2022-11-05T06:18:34.543Z,95920.63
2022-11-05T06:21:06.447Z,95926.00
2022-11-05T06:23:34.168Z,95931.16
2022-11-05T06:26:08.916Z,95938.63
2022-11-05T06:28:35.761Z,95943.56
2022-11-05T06:31:02.893Z,95947.53
2022-11-05T06:33:29.916Z,95948.50
2022-11-05T06:36:00.855Z,95951.19
2022-11-05T06:38:29.391Z,95950.19
2022-11-05T06:40:59.445Z,95961.56
2022-11-05T06:43:27.077Z,95964.03
2022-11-05T06:45:54.218Z,95971.16
2022-11-05T06:48:21.125Z,95976.38
2022-11-05T06:50:47.901Z,95970.34
2022-11-05T06:53:15.082Z,95975.53
2022-11-05T06:55:41.859Z,95972.59
2022-11-05T06:58:08.611Z,95975.28
2022-11-05T07:00:35.434Z,95970.69
2022-11-05T07:03:10.408Z,95975.44
2022-11-05T07:05:40.409Z,95983.47
2022-11-05T07:08:07.207Z,95989.19
2022-11-05T07:10:33.976Z,95991.03
2022-11-05T07:13:05.156Z,95995.91
2022-11-05T07:15:34.427Z,95989.28
2022-11-05T07:18:01.937Z,95996.81
2022-11-05T07:20:33.497Z,95999.16
2022-11-05T07:23:06.040Z,95997.06
2022-11-05T07:25:34.107Z,95996.28
2022-11-05T07:28:01.757Z,96001.34
2022-11-05T07:30:29.189Z,96011.56
2022-11-05T07:32:56.082Z,96016.75
2022-11-05T07:35:23.263Z,96022.66
2022-11-05T07:37:54.112Z,96021.34
2022-11-05T07:40:22.810Z,96025.03
2022-11-05T07:42:52.550Z,96023.19
2022-11-05T07:45:20.174Z,96031.97
2022-11-05T07:47:52.031Z,96047.28
2022-11-05T07:50:21.177Z,96041.47
2022-11-05T07:52:48.769Z,96042.50
2022-11-05T07:55:16.761Z,96044.44
2022-11-05T07:57:48.627Z,96046.72
2022-11-05T08:00:18.068Z,96048.22
2022-11-05T08:02:45.000Z,96056.50
2022-11-05T08:05:11.959Z,96053.91
2022-11-05T08:07:38.723Z,96055.53
2022-11-05T08:10:05.846Z,96058.19
2022-11-05T08:12:32.802Z,96062.94
2022-11-05T08:14:59.586Z,96059.03
2022-11-05T08:17:26.406Z,96068.50
2022-11-05T08:19:53.174Z,96067.19
2022-11-05T08:22:19.995Z,96071.84
2022-11-05T08:24:46.769Z,96066.72
2022-11-05T08:27:13.803Z,96079.59
2022-11-05T08:29:40.519Z,96070.31
2022-11-05T08:32:07.324Z,96073.09
2022-11-05T08:34:34.083Z,96070.19
2022-11-05T08:37:01.951Z,96074.63
2022-11-05T08:39:28.705Z,96066.50
2022-11-05T08:41:55.550Z,96075.47
2022-11-05T08:44:22.380Z,96074.97
2022-11-05T08:46:49.365Z,96073.03
2022-11-05T08:49:16.103Z,96077.34
2022-11-05T08:51:44.531Z,96079.09
2022-11-05T08:54:11.437Z,96080.91
2022-11-05T08:56:38.453Z,96074.06
2022-11-05T08:59:05.257Z,96081.88
2022-11-05T09:01:33.738Z,96079.78
2022-11-05T09:04:00.655Z,96077.19
2022-11-05T09:06:27.939Z,96084.06
2022-11-05T09:08:55.031Z,96078.38
2022-11-05T09:11:21.891Z,96086.44
2022-11-05T09:13:48.753Z,96087.44
2022-11-05T09:16:21.321Z,96093.16
2022-11-05T09:18:49.413Z,96093.19
2022-11-05T09:21:17.591Z,96088.00
2022-11-05T09:23:47.663Z,96093.22
2022-11-05T09:26:14.904Z,96092.53
2022-11-05T09:28:43.370Z,96097.03
2022-11-05T09:31:11.376Z,96100.53
2022-11-05T09:33:40.462Z,96106.72
2022-11-05T09:36:08.178Z,96110.13
2022-11-05T09:38:35.820Z,96112.94
2022-11-05T09:41:11.962Z,96117.41
2022-11-05T09:43:43.964Z,96126.41
2022-11-05T09:46:46.091Z,96137.19
2022-11-05T09:49:25.348Z,96132.28
2022-11-05T09:51:58.313Z,96130.16
2022-11-05T09:54:34.374Z,96134.59
2022-11-05T09:57:03.419Z,96136.06
2022-11-05T09:59:58.380Z,96134.16
2022-11-05T10:02:33.244Z,96138.59
2022-11-05T10:05:09.712Z,96137.19
2022-11-05T10:07:45.302Z,96138.38
2022-11-05T10:10:54.945Z,96126.97
2022-11-05T10:13:25.821Z,96134.81
2022-11-05T10:16:02.402Z,96135.94
2022-11-05T10:18:34.823Z,96137.44
2022-11-05T10:21:01.844Z,96133.41
2022-11-05T10:23:29.620Z,96140.94
2022-11-05T10:26:03.611Z,96135.22
2022-11-05T10:28:33.009Z,96135.03
2022-11-05T10:31:04.218Z,96138.81
2022-11-05T10:33:45.252Z,96131.13
2022-11-05T10:36:22.555Z,96136.03
2022-11-05T10:38:50.269Z,96135.41
2022-11-05T10:41:47.697Z,96142.09
2022-11-05T10:44:18.978Z,96141.28
2022-11-05T10:47:30.853Z,96149.75
2022-11-05T10:50:02.626Z,96150.91
2022-11-05T10:52:38.360Z,96150.91
2022-11-05T10:55:31.477Z,96150.25
2022-11-05T10:58:13.452Z,96150.91
2022-11-05T11:00:40.704Z,96153.03
2022-11-05T11:03:32.030Z,96162.16
2022-11-05T11:06:07.271Z,96158.94
2022-11-05T11:08:42.256Z,96155.00
2022-11-05T11:11:25.911Z,96149.25
2022-11-05T11:14:17.261Z,96159.41
2022-11-05T11:16:51.318Z,96154.81
2022-11-05T11:19:21.345Z,96154.47
2022-11-05T11:22:09.604Z,96149.88
2022-11-05T11:24:48.430Z,96155.28
2022-11-05T11:27:27.277Z,96154.47
2022-11-05T11:30:18.187Z,96150.53
2022-11-05T11:32:46.456Z,96148.25
2022-11-05T11:35:25.135Z,96154.94
2022-11-05T11:37:54.932Z,96157.22
2022-11-05T11:40:33.136Z,96157.53
2022-11-05T11:43:06.278Z,96169.63
2022-11-05T11:45:38.207Z,96162.94
2022-11-05T11:48:07.805Z,96160.84
2022-11-05T11:50:36.382Z,96170.47
2022-11-05T11:53:21.430Z,96168.03
2022-11-05T11:56:15.724Z,96164.59
2022-11-05T11:58:43.844Z,96163.13
2022-11-05T12:01:35.444Z,96163.16
2022-11-05T12:04:25.978Z,96163.94
2022-11-05T12:07:10.801Z,96167.22
2022-11-05T12:09:55.990Z,96158.09
2022-11-05T12:12:35.647Z,96166.91
2022-11-05T12:15:24.617Z,96166.91
2022-11-05T12:18:05.313Z,96166.75
2022-11-05T12:20:45.445Z,96161.03
2022-11-05T12:23:30.416Z,96157.44
2022-11-05T12:26:05.624Z,96156.63
2022-11-05T12:29:18.313Z,96156.41
2022-11-05T12:32:06.779Z,96155.75
2022-11-05T12:34:52.067Z,96155.44
2022-11-05T12:37:50.478Z,96159.41
2022-11-05T12:40:23.134Z,96160.22
2022-11-05T12:43:11.920Z,96167.56
2022-11-05T12:46:20.252Z,96168.91
2022-11-05T12:49:31.617Z,96170.06
2022-11-05T12:52:12.131Z,96176.72
2022-11-05T12:54:58.543Z,96176.69
2022-11-05T12:57:29.246Z,96180.94
2022-11-05T13:00:18.845Z,96181.59
2022-11-05T13:02:56.403Z,96188.78
2022-11-05T13:05:38.127Z,96188.66
2022-11-05T13:08:14.646Z,96198.56
2022-11-05T13:10:46.331Z,96195.63
2022-11-05T13:13:30.867Z,96198.53
2022-11-05T13:16:05.317Z,96199.50
2022-11-05T13:18:44.722Z,96211.59
2022-11-05T13:21:11.938Z,96206.72
2022-11-05T13:23:46.814Z,96209.31
2022-11-05T13:26:51.136Z,96210.59
2022-11-05T13:29:21.114Z,96200.00
2022-11-05T13:31:57.974Z,96195.63
2022-11-05T13:34:24.781Z,96195.94
2022-11-05T13:37:23.225Z,96208.72
2022-11-05T13:40:00.209Z,96198.44
2022-11-05T13:42:49.153Z,96206.09
2022-11-05T13:45:34.392Z,96203.50
2022-11-05T13:48:25.170Z,96205.47
2022-11-05T13:51:49.487Z,96198.66
2022-11-05T13:54:53.224Z,96189.81
2022-11-05T13:57:35.173Z,96209.75
2022-11-05T14:00:23.306Z,96205.81
2022-11-05T14:03:16.014Z,96209.56
2022-11-05T14:05:43.670Z,96212.81
2022-11-05T14:08:16.513Z,96217.25
2022-11-05T14:10:46.037Z,96215.63
2022-11-05T14:13:50.833Z,96209.75
2022-11-05T14:16:17.506Z,96211.69
2022-11-05T14:19:04.486Z,96214.31
2022-11-05T14:21:55.278Z,96216.94
2022-11-05T14:24:22.040Z,96212.88
2022-11-05T14:27:00.752Z,96224.78
2022-11-05T14:29:43.861Z,96225.94
2022-11-05T14:32:19.850Z,96220.72
2022-11-05T14:35:04.251Z,96216.78
2022-11-05T14:37:37.207Z,96220.38
2022-11-05T14:40:22.120Z,96217.13
2022-11-05T14:42:55.311Z,96219.41
2022-11-05T14:45:34.551Z,96228.69
2022-11-05T14:48:28.134Z,96227.72
2022-11-05T14:50:55.260Z,96226.09
2022-11-05T14:53:38.127Z,96226.41
2022-11-05T14:56:09.315Z,96229.63
2022-11-05T14:58:38.697Z,96231.44
2022-11-05T15:01:14.708Z,96233.22
2022-11-05T15:03:46.293Z,96235.56
2022-11-05T15:06:33.538Z,96235.56
2022-11-05T15:09:26.907Z,96225.38
2022-11-05T15:11:56.670Z,96234.72
2022-11-05T15:15:01.989Z,96227.97
2022-11-05T15:17:39.038Z,96229.44
2022-11-05T15:20:14.510Z,96236.66
2022-11-05T15:22:45.086Z,96235.97
2022-11-05T15:25:20.779Z,96234.44
2022-11-05T15:27:53.654Z,96242.09
2022-11-05T15:30:23.711Z,96243.34
2022-11-05T15:32:51.725Z,96244.44
2022-11-05T15:35:22.375Z,96251.59
2022-11-05T15:37:55.941Z,96253.31
2022-11-05T15:40:28.552Z,96255.88
2022-11-05T15:43:17.385Z,96262.53
2022-11-05T15:45:57.135Z,96268.25
2022-11-05T15:48:23.883Z,96271.78
2022-11-05T15:50:50.752Z,96267.38
2022-11-05T15:53:47.602Z,96272.06
2022-11-05T15:56:22.092Z,96268.00
2022-11-05T15:59:28.258Z,96279.06
2022-11-05T16:02:05.938Z,96276.00
2022-11-05T16:04:35.091Z,96278.41
2022-11-05T16:07:09.141Z,96286.88
2022-11-05T16:09:38.601Z,96278.75
2022-11-05T16:12:14.412Z,96280.78
2022-11-05T16:14:42.012Z,96279.56
2022-11-05T16:17:23.289Z,96286.94
2022-11-05T16:19:51.098Z,96288.78
2022-11-05T16:22:18.537Z,96288.63
2022-11-05T16:24:46.317Z,96284.97
2022-11-05T16:27:21.196Z,96287.94
2022-11-05T16:29:56.474Z,96287.16
2022-11-05T16:32:30.626Z,96288.91
2022-11-05T16:35:04.371Z,96287.13
2022-11-05T16:37:40.092Z,96297.28
2022-11-05T16:40:17.853Z,96287.94
2022-11-05T16:42:48.581Z,96295.03
2022-11-05T16:45:17.136Z,96291.50
2022-11-05T16:47:45.024Z,96295.44
2022-11-05T16:50:25.719Z,96302.91
2022-11-05T16:52:53.011Z,96303.16
2022-11-05T16:55:20.348Z,96302.22
2022-11-05T16:57:52.481Z,96306.84
2022-11-05T17:00:21.234Z,96308.91
2022-11-05T17:02:48.402Z,96304.53
2022-11-05T17:05:25.797Z,96310.81
2022-11-05T17:07:53.406Z,96310.69
2022-11-05T17:10:22.135Z,96320.94
2022-11-05T17:12:49.265Z,96319.19
2022-11-05T17:15:27.095Z,96323.28
2022-11-05T17:17:54.814Z,96321.22
2022-11-05T17:20:39.538Z,96327.25
2022-11-05T17:23:18.448Z,96320.94
2022-11-05T17:25:53.217Z,96328.38
2022-11-05T17:28:20.661Z,96334.22
2022-11-05T17:30:54.351Z,96329.28
2022-11-05T17:33:22.880Z,96330.38
2022-11-05T17:35:50.919Z,96337.50
2022-11-05T17:38:18.108Z,96339.03
2022-11-05T17:40:44.861Z,96339.97
2022-11-05T17:43:11.936Z,96338.34
2022-11-05T17:45:47.053Z,96341.19
2022-11-05T17:48:15.168Z,96342.72
2022-11-05T17:50:47.526Z,96350.22
2022-11-05T17:53:16.508Z,96353.91
2022-11-05T17:55:45.165Z,96352.56
2022-11-05T17:58:12.606Z,96350.22
2022-11-05T18:00:40.732Z,96358.03
2022-11-05T18:03:07.728Z,96366.22
2022-11-05T18:05:34.655Z,96368.53
2022-11-05T18:08:01.829Z,96361.97
2022-11-05T18:10:28.657Z,96375.22
2022-11-05T18:12:55.620Z,96375.91
2022-11-05T18:15:22.449Z,96376.88
2022-11-05T18:17:49.187Z,96383.56
2022-11-05T18:20:19.248Z,96379.72
2022-11-05T18:22:49.231Z,96384.75
2022-11-05T18:25:16.902Z,96380.41
2022-11-05T18:27:43.633Z,96380.00
2022-11-05T18:30:14.069Z,96381.50
2022-11-05T18:32:42.590Z,96381.34
2022-11-05T18:35:09.832Z,96380.25
2022-11-05T18:37:39.742Z,96388.44
2022-11-05T18:40:07.626Z,96385.00
2022-11-05T18:42:34.437Z,96382.00
2022-11-05T18:45:01.231Z,96393.03
2022-11-05T18:47:27.995Z,96391.66
2022-11-05T18:49:54.813Z,96396.31
2022-11-05T18:52:21.489Z,96389.59
2022-11-05T18:54:48.329Z,96384.53
2022-11-05T18:57:15.062Z,96380.19
2022-11-05T18:59:46.695Z,96374.69
2022-11-05T19:02:14.738Z,96377.44
2022-11-05T19:04:55.095Z,96375.50
2022-11-05T19:07:28.702Z,96378.75
2022-11-05T19:09:55.549Z,96374.63
2022-11-05T19:12:22.297Z,96380.66
2022-11-05T19:14:49.054Z,96380.97
2022-11-05T19:17:15.833Z,96383.59
2022-11-05T19:19:42.587Z,96392.06
2022-11-05T19:22:10.328Z,96387.91
2022-11-05T19:24:37.091Z,96395.28
2022-11-05T19:27:03.854Z,96401.56
2022-11-05T19:29:30.651Z,96402.19
2022-11-05T19:31:57.380Z,96390.41
2022-11-05T19:34:24.214Z,96391.38
2022-11-05T19:36:50.919Z,96392.16
2022-11-05T19:39:17.736Z,96396.56
2022-11-05T19:41:44.428Z,96402.34
2022-11-05T19:44:11.324Z,96398.00
2022-11-05T19:46:38.542Z,96399.69
2022-11-05T19:49:05.282Z,96402.69
2022-11-05T19:51:32.914Z,96401.75
2022-11-05T19:54:02.393Z,96407.59
2022-11-05T19:56:32.004Z,96396.78
2022-11-05T19:58:59.844Z,96405.75
2022-11-05T20:01:28.456Z,96407.28
2022-11-05T20:03:57.073Z,96409.06
2022-11-05T20:06:32.982Z,96406.22
2022-11-05T20:11:51.246Z,96413.56
2022-11-05T20:14:18.031Z,96420.00
2022-11-05T20:16:45.757Z,96425.03
2022-11-05T20:19:20.805Z,96431.31
2022-11-05T20:21:48.161Z,96426.28
2022-11-05T20:24:23.283Z,96417.25
2022-11-05T20:26:50.298Z,96418.88
2022-11-05T20:29:17.213Z,96413.56
2022-11-05T20:31:43.957Z,96413.31
2022-11-05T20:34:10.780Z,96401.16
2022-11-05T20:36:39.469Z,96403.31
2022-11-05T20:39:06.279Z,96405.91
2022-11-05T20:41:33.297Z,96400.72
2022-11-05T20:44:00.166Z,96412.28
2022-11-05T20:46:27.007Z,96409.44
2022-11-05T20:48:54.026Z,96412.75
2022-11-05T20:51:22.508Z,96416.53
2022-11-05T20:53:49.619Z,96416.41
2022-11-05T20:56:25.288Z,96412.16
2022-11-05T20:58:52.774Z,96410.25
2022-11-05T21:01:20.481Z,96415.59
2022-11-05T21:03:47.879Z,96416.78
2022-11-05T21:06:15.041Z,96416.13
2022-11-05T21:08:41.779Z,96418.72
2022-11-05T21:11:09.025Z,96422.84
2022-11-05T21:13:36.022Z,96434.94
2022-11-05T21:16:06.094Z,96436.03
2022-11-05T21:18:35.357Z,96437.41
2022-11-05T21:21:08.325Z,96440.75
2022-11-05T21:23:35.881Z,96431.72
2022-11-05T21:26:06.603Z,96437.47
2022-11-05T21:28:34.141Z,96438.00
2022-11-05T21:31:03.406Z,96432.00
2022-11-05T21:33:30.945Z,96427.75
2022-11-05T21:35:58.002Z,96433.66
2022-11-05T21:38:25.424Z,96428.72
2022-11-05T21:40:52.738Z,96421.75
2022-11-05T21:43:19.456Z,96421.47
2022-11-05T21:45:46.306Z,96418.56
2022-11-05T21:48:15.289Z,96416.78
2022-11-05T21:51:01.498Z,96411.47
2022-11-05T21:53:47.208Z,96412.38
2022-11-05T21:56:41.872Z,96418.09
2022-11-05T21:59:30.633Z,96419.75
2022-11-05T22:02:01.671Z,96411.09
2022-11-05T22:04:37.262Z,96420.38
2022-11-05T22:07:04.879Z,96414.91
2022-11-05T22:09:31.953Z,96417.06
2022-11-05T22:11:59.480Z,96412.00
2022-11-05T22:14:27.347Z,96412.97
2022-11-05T22:16:54.359Z,96418.97
2022-11-05T22:19:21.912Z,96414.72
2022-11-05T22:21:49.006Z,96418.16
2022-11-05T22:24:16.148Z,96407.19
2022-11-05T22:26:43.454Z,96411.88
2022-11-05T22:29:10.978Z,96410.78
2022-11-05T22:31:37.823Z,96405.66
2022-11-05T22:34:05.879Z,96417.78
2022-11-05T22:36:34.139Z,96420.78
2022-11-05T22:39:01.552Z,96419.13
2022-11-05T22:41:28.359Z,96424.06
2022-11-05T22:43:55.885Z,96424.06
2022-11-05T22:46:24.971Z,96424.53
2022-11-05T22:48:53.072Z,96430.28
2022-11-05T22:51:23.165Z,96437.50
2022-11-05T22:53:50.390Z,96435.72
2022-11-05T22:56:20.850Z,96430.03
2022-11-05T22:58:48.666Z,96431.03
2022-11-05T23:01:16.300Z,96425.09
2022-11-05T23:03:45.262Z,96429.78
2022-11-05T23:06:42.290Z,96430.91
2022-11-05T23:09:37.102Z,96429.81
2022-11-05T23:12:06.414Z,96427.13
2022-11-05T23:14:34.689Z,96417.28
2022-11-05T23:17:19.911Z,96427.13
2022-11-05T23:20:05.471Z,96431.31
2022-11-05T23:22:51.041Z,96425.09
2022-11-05T23:25:20.812Z,96423.53
2022-11-05T23:27:50.052Z,96419.44
2022-11-05T23:30:20.537Z,96423.94
2022-11-05T23:32:48.113Z,96424.47
2022-11-05T23:35:15.214Z,96423.47
2022-11-05T23:38:00.663Z,96413.53
2022-11-05T23:40:30.525Z,96416.97
2022-11-05T23:43:16.083Z,96415.34
2022-11-05T23:45:59.228Z,96418.06
2022-11-05T23:48:37.230Z,96414.38
2022-11-05T23:51:09.321Z,96405.16
2022-11-05T23:53:40.062Z,96403.75
2022-11-05T23:56:14.641Z,96412.28
2022-11-05T23:58:42.449Z,96411.34
